createdAt,value
2019-01-09T00:03:08.075Z,58.25
2019-01-09T00:08:12.398Z,58.01
2019-01-09T00:13:16.735Z,58.88
2019-01-09T00:18:21.020Z,58.61
2019-01-09T00:23:25.399Z,58.79
2019-01-09T00:28:29.547Z,58.79
2019-01-09T00:33:33.875Z,58.30
2019-01-09T00:38:38.156Z,58.62
2019-01-09T00:43:42.449Z,58.24
2019-01-09T00:48:46.662Z,58.06
2019-01-09T00:53:50.963Z,57.91
2019-01-09T00:58:55.200Z,58.24
2019-01-09T01:04:45.935Z,58.21
2019-01-09T01:10:35.973Z,57.75
2019-01-09T01:16:29.114Z,57.75
2019-01-09T01:21:38.029Z,58.36
2019-01-09T01:26:56.833Z,58.36
2019-01-09T01:32:57.202Z,57.79
2019-01-09T01:38:16.771Z,58.18
2019-01-09T01:43:34.737Z,58.47
2019-01-09T01:49:34.497Z,57.89
2019-01-09T01:54:56.652Z,57.89
2019-01-09T02:00:24.018Z,57.91
2019-01-09T02:05:44.845Z,57.63
2019-01-09T02:11:21.057Z,58.26
2019-01-09T02:16:44.692Z,58.06
2019-01-09T02:22:28.371Z,58.28
2019-01-09T02:28:00.642Z,57.88
2019-01-09T02:33:04.934Z,58.30
2019-01-09T02:38:08.954Z,57.38
2019-01-09T02:43:13.003Z,57.38
2019-01-09T02:48:17.039Z,56.97
2019-01-09T02:53:21.230Z,57.98
2019-01-09T02:58:25.328Z,57.98
2019-01-09T03:03:29.399Z,58.53
2019-01-09T03:08:33.531Z,58.62
2019-01-09T03:13:37.675Z,58.20
2019-01-09T03:18:41.974Z,58.00
2019-01-09T03:23:46.185Z,58.03
2019-01-09T03:28:50.247Z,58.01
2019-01-09T03:33:54.466Z,58.01
2019-01-09T03:38:58.652Z,59.04
2019-01-09T03:44:02.850Z,59.43
2019-01-09T03:49:06.967Z,59.28
2019-01-09T03:54:11.015Z,59.28
2019-01-09T03:59:15.130Z,60.08
2019-01-09T04:04:19.329Z,60.08
2019-01-09T04:09:23.367Z,59.63
2019-01-09T04:14:27.562Z,58.86
2019-01-09T04:19:31.697Z,58.49
2019-01-09T04:24:35.835Z,58.68
2019-01-09T04:29:41.780Z,59.25
2019-01-09T04:34:45.741Z,59.58
2019-01-09T04:39:49.786Z,59.80
2019-01-09T04:44:53.850Z,59.66
2019-01-09T04:49:57.898Z,59.66
2019-01-09T04:55:02.108Z,60.36
2019-01-09T05:00:07.008Z,60.36
2019-01-09T05:05:11.209Z,59.17
2019-01-09T05:10:15.317Z,59.22
2019-01-09T05:15:19.359Z,59.18
2019-01-09T05:20:23.390Z,59.18
2019-01-09T05:25:27.492Z,59.68
2019-01-09T05:30:31.597Z,59.68
2019-01-09T05:35:35.641Z,60.16
2019-01-09T05:40:39.751Z,59.75
2019-01-09T05:45:43.817Z,59.75
2019-01-09T05:50:47.851Z,60.08
2019-01-09T05:55:51.882Z,59.41
2019-01-09T06:01:24.395Z,59.49
2019-01-09T06:06:28.505Z,58.83
2019-01-09T06:11:32.520Z,59.12
2019-01-09T06:16:36.709Z,59.12
2019-01-09T06:21:40.810Z,59.63
2019-01-09T06:26:44.906Z,59.63
2019-01-09T06:31:49.057Z,59.75
2019-01-09T06:36:53.110Z,59.68
2019-01-09T06:41:57.219Z,59.68
2019-01-09T06:47:01.327Z,60.07
2019-01-09T06:52:05.490Z,60.07
2019-01-09T06:57:09.505Z,59.20
2019-01-09T07:02:13.607Z,59.45
2019-01-09T07:07:17.656Z,59.19
2019-01-09T07:12:21.852Z,59.79
2019-01-09T07:17:25.962Z,59.78
2019-01-09T07:22:30.025Z,59.61
2019-01-09T07:27:34.048Z,60.12
2019-01-09T07:32:38.269Z,59.81
2019-01-09T07:37:45.261Z,59.93
2019-01-09T07:42:48.066Z,59.73
2019-01-09T07:47:52.088Z,59.93
2019-01-09T07:52:56.102Z,46.43
2019-01-09T07:58:00.124Z,50.15
2019-01-09T08:03:04.326Z,53.38
2019-01-09T08:08:08.444Z,53.38
2019-01-09T08:13:12.539Z,46.29
2019-01-09T08:18:16.792Z,45.70
2019-01-09T08:23:20.893Z,46.87
2019-01-09T08:28:25.007Z,46.84
2019-01-09T08:33:29.018Z,46.55
2019-01-09T08:38:33.184Z,47.29
2019-01-09T08:43:37.228Z,49.42
2019-01-09T08:48:41.288Z,50.16
2019-01-09T08:53:45.350Z,50.16
2019-01-09T08:58:49.362Z,51.58
2019-01-09T09:03:53.714Z,51.94
2019-01-09T09:08:59.579Z,52.56
2019-01-09T09:14:03.803Z,52.34
2019-01-09T09:19:07.985Z,52.94
2019-01-09T09:24:12.083Z,52.68
2019-01-09T09:29:16.186Z,52.52
2019-01-09T09:34:20.223Z,52.97
2019-01-09T09:39:24.243Z,54.29
2019-01-09T09:44:28.365Z,53.89
2019-01-09T09:49:32.590Z,54.67
2019-01-09T09:54:36.619Z,54.95
2019-01-09T09:59:40.653Z,55.94
2019-01-09T10:04:44.681Z,56.12
2019-01-09T10:09:48.694Z,55.46
2019-01-09T10:14:52.827Z,55.46
2019-01-09T10:19:56.846Z,54.95
2019-01-09T10:25:01.052Z,55.01
2019-01-09T10:30:06.963Z,55.59
2019-01-09T10:35:11.137Z,56.45
2019-01-09T10:40:17.166Z,57.19
2019-01-09T10:45:22.447Z,57.04
2019-01-09T10:50:26.629Z,57.64
2019-01-09T10:55:30.731Z,56.08
2019-01-09T11:00:34.903Z,55.28
2019-01-09T11:05:39.001Z,55.28
2019-01-09T11:10:43.118Z,55.55
2019-01-09T11:15:47.339Z,56.50
2019-01-09T11:20:51.396Z,56.54
2019-01-09T11:25:55.440Z,56.54
2019-01-09T11:30:59.469Z,57.19
2019-01-09T11:36:03.828Z,57.79
2019-01-09T11:41:08.018Z,57.79
2019-01-09T11:46:12.218Z,58.23
2019-01-09T11:51:16.234Z,56.98
2019-01-09T11:56:20.271Z,56.98
2019-01-09T12:01:24.320Z,56.75
2019-01-09T12:06:28.379Z,56.62
2019-01-09T12:11:32.473Z,57.35
2019-01-09T12:16:36.514Z,57.84
2019-01-09T12:21:40.550Z,57.84
2019-01-09T12:26:44.562Z,58.77
2019-01-09T12:31:48.605Z,58.77
2019-01-09T12:36:52.640Z,58.95
2019-01-09T12:41:56.656Z,58.65
2019-01-09T12:47:00.683Z,58.60
2019-01-09T12:52:04.869Z,58.60
2019-01-09T12:57:08.993Z,57.98
2019-01-09T13:02:13.026Z,58.66
2019-01-09T13:07:17.059Z,58.92
2019-01-09T13:12:21.106Z,59.76
2019-01-09T13:17:25.157Z,48.81
2019-01-09T13:22:29.339Z,50.74
2019-01-09T13:27:33.378Z,51.97
2019-01-09T13:32:37.479Z,50.54
2019-01-09T13:37:41.500Z,50.54
2019-01-09T13:42:45.747Z,48.06
2019-01-09T13:47:50.174Z,48.06
2019-01-09T13:52:54.285Z,47.89
2019-01-09T13:57:58.426Z,48.17
2019-01-09T14:03:02.462Z,48.44
2019-01-09T14:08:06.631Z,48.92
2019-01-09T14:13:10.738Z,50.42
2019-01-09T14:18:14.841Z,50.99
2019-01-09T14:23:18.907Z,51.39
2019-01-09T14:28:23.071Z,51.39
2019-01-09T14:33:27.191Z,53.46
2019-01-09T14:38:31.270Z,53.66
2019-01-09T14:43:35.317Z,54.00
2019-01-09T14:48:39.969Z,54.00
2019-01-09T14:53:44.352Z,53.93
2019-01-09T14:58:48.623Z,54.62
2019-01-09T15:03:52.902Z,55.34
2019-01-09T15:08:57.165Z,55.41
2019-01-09T15:14:01.506Z,56.42
2019-01-09T15:19:05.940Z,56.42
2019-01-09T15:24:30.878Z,56.63
2019-01-09T15:29:40.619Z,56.92
2019-01-09T15:34:48.797Z,57.08
2019-01-09T15:39:55.032Z,56.73
2019-01-09T15:45:00.526Z,56.26
2019-01-09T15:50:08.015Z,56.26
2019-01-09T15:55:14.464Z,56.26
2019-01-09T16:00:28.571Z,56.21
2019-01-09T16:05:34.461Z,56.72
2019-01-09T16:10:39.424Z,56.72
2019-01-09T16:15:44.763Z,57.49
2019-01-09T16:20:49.780Z,57.88
2019-01-09T16:25:54.196Z,57.88
2019-01-09T16:31:28.120Z,57.87
2019-01-09T16:36:33.181Z,57.53
2019-01-09T16:41:37.458Z,57.24
2019-01-09T16:46:41.623Z,57.24
2019-01-09T16:51:45.917Z,57.00
2019-01-09T16:56:50.206Z,57.00
2019-01-09T17:01:54.456Z,58.31
2019-01-09T17:06:58.644Z,58.98
2019-01-09T17:12:02.865Z,59.07
2019-01-09T17:17:07.048Z,59.43
2019-01-09T17:22:13.624Z,59.49
2019-01-09T17:27:17.914Z,60.22
2019-01-09T17:32:22.095Z,59.96
2019-01-09T17:37:26.449Z,59.76
2019-01-09T17:42:30.654Z,59.20
2019-01-09T17:47:34.821Z,59.41
2019-01-09T17:52:39.184Z,59.62
2019-01-09T17:57:43.743Z,59.62
2019-01-09T18:02:47.980Z,60.34
2019-01-09T18:07:52.471Z,60.34
2019-01-09T18:12:56.755Z,60.18
2019-01-09T18:18:01.198Z,59.81
2019-01-09T18:23:05.502Z,59.57
2019-01-09T18:28:09.693Z,59.29
2019-01-09T18:33:28.400Z,59.28
2019-01-09T18:38:43.778Z,59.28
2019-01-09T18:44:15.160Z,59.77
2019-01-09T18:49:45.029Z,60.11
2019-01-09T18:54:49.321Z,59.73
2019-01-09T18:59:53.519Z,59.73
2019-01-09T19:04:57.701Z,60.10
2019-01-09T19:10:01.912Z,60.13
2019-01-09T19:15:07.460Z,60.13
2019-01-09T19:20:12.671Z,59.82
2019-01-09T19:25:17.460Z,59.50
2019-01-09T19:30:27.277Z,59.36
2019-01-09T19:35:31.495Z,59.92
2019-01-09T19:40:35.743Z,59.88
2019-01-09T19:45:39.995Z,60.17
2019-01-09T19:50:44.242Z,60.29
2019-01-09T19:55:48.643Z,60.31
2019-01-09T20:00:52.915Z,60.31
2019-01-09T20:05:57.141Z,60.23
2019-01-09T20:11:01.306Z,60.23
2019-01-09T20:16:05.815Z,59.78
2019-01-09T20:21:10.201Z,59.99
2019-01-09T20:26:15.620Z,59.24
2019-01-09T20:31:19.874Z,58.83
2019-01-09T20:36:24.058Z,59.03
2019-01-09T20:41:35.040Z,58.61
2019-01-09T20:46:34.334Z,58.71
2019-01-09T20:51:38.549Z,58.80
2019-01-09T20:56:42.880Z,59.24
2019-01-09T21:01:47.103Z,59.76
2019-01-09T21:06:51.381Z,59.24
2019-01-09T21:11:55.581Z,59.24
2019-01-09T21:16:59.863Z,59.75
2019-01-09T21:22:04.172Z,60.09
2019-01-09T21:27:08.470Z,59.75
2019-01-09T21:32:12.735Z,59.91
2019-01-09T21:37:16.921Z,60.25
2019-01-09T21:42:21.250Z,60.40
2019-01-09T21:47:25.497Z,59.75
2019-01-09T21:52:29.803Z,59.75
2019-01-09T21:57:34.108Z,59.97
2019-01-09T22:02:38.424Z,59.81
2019-01-09T22:07:42.977Z,59.77
2019-01-09T22:12:47.230Z,59.84
2019-01-09T22:17:51.507Z,59.85
2019-01-09T22:22:55.813Z,59.94
2019-01-09T22:28:00.104Z,60.36
2019-01-09T22:33:04.495Z,60.18
2019-01-09T22:38:08.834Z,60.58
2019-01-09T22:43:13.090Z,60.38
2019-01-09T22:48:17.321Z,60.38
2019-01-09T22:53:21.541Z,60.32
2019-01-09T22:58:25.794Z,60.67
2019-01-09T23:03:30.578Z,60.67
2019-01-09T23:08:34.668Z,60.96
2019-01-09T23:13:38.774Z,60.96
2019-01-09T23:18:42.973Z,60.34
2019-01-09T23:23:47.090Z,60.04
2019-01-09T23:28:51.273Z,60.04
2019-01-09T23:33:55.491Z,59.76
2019-01-09T23:38:59.583Z,59.96
2019-01-09T23:44:03.787Z,60.10
2019-01-09T23:49:07.887Z,60.10
2019-01-09T23:54:11.988Z,61.05
2019-01-09T23:59:16.030Z,60.91
